sensor_id;sensor_type;location;lat;lon;timestamp;P1;durP1;ratioP1;P2;durP2;ratioP2
2430;SDS011;1226;48.998;9.300;2022-08-07T00:01:29;1.72;;;0.90;;
2430;SDS011;1226;48.998;9.300;2022-08-07T00:03:55;1.48;;;0.76;;
2430;SDS011;1226;48.998;9.300;2022-08-07T00:06:21;2.48;;;1.26;;
2430;SDS011;1226;48.998;9.300;2022-08-07T00:08:46;1.36;;;1.10;;
2430;SDS011;1226;48.998;9.300;2022-08-07T00:11:12;1.40;;;1.10;;
2430;SDS011;1226;48.998;9.300;2022-08-07T00:13:38;1.38;;;1.08;;
2430;SDS011;1226;48.998;9.300;2022-08-07T00:16:04;1.34;;;0.90;;
2430;SDS011;1226;48.998;9.300;2022-08-07T00:18:30;3.18;;;1.80;;
2430;SDS011;1226;48.998;9.300;2022-08-07T00:20:57;2.22;;;1.00;;
2430;SDS011;1226;48.998;9.300;2022-08-07T00:23:21;3.38;;;0.90;;
2430;SDS011;1226;48.998;9.300;2022-08-07T00:25:47;1.12;;;1.02;;
2430;SDS011;1226;48.998;9.300;2022-08-07T00:28:13;1.52;;;0.82;;
2430;SDS011;1226;48.998;9.300;2022-08-07T00:30:39;1.20;;;0.96;;
2430;SDS011;1226;48.998;9.300;2022-08-07T00:33:05;2.08;;;1.24;;
2430;SDS011;1226;48.998;9.300;2022-08-07T00:35:31;1.06;;;0.96;;
2430;SDS011;1226;48.998;9.300;2022-08-07T00:37:57;1.02;;;0.86;;
2430;SDS011;1226;48.998;9.300;2022-08-07T00:40:22;1.16;;;0.90;;
2430;SDS011;1226;48.998;9.300;2022-08-07T00:42:48;1.10;;;1.00;;
2430;SDS011;1226;48.998;9.300;2022-08-07T00:45:14;1.12;;;1.02;;
2430;SDS011;1226;48.998;9.300;2022-08-07T00:47:40;1.18;;;0.80;;
2430;SDS011;1226;48.998;9.300;2022-08-07T00:50:06;1.30;;;1.14;;
2430;SDS011;1226;48.998;9.300;2022-08-07T00:52:32;1.46;;;1.10;;
2430;SDS011;1226;48.998;9.300;2022-08-07T00:54:58;1.90;;;0.90;;
2430;SDS011;1226;48.998;9.300;2022-08-07T00:57:24;1.54;;;1.04;;
2430;SDS011;1226;48.998;9.300;2022-08-07T00:59:50;3.48;;;1.20;;
2430;SDS011;1226;48.998;9.300;2022-08-07T01:02:15;1.68;;;1.00;;
2430;SDS011;1226;48.998;9.300;2022-08-07T01:04:41;1.40;;;1.10;;
2430;SDS011;1226;48.998;9.300;2022-08-07T01:07:07;1.48;;;1.16;;
2430;SDS011;1226;48.998;9.300;2022-08-07T01:09:33;1.18;;;1.08;;
2430;SDS011;1226;48.998;9.300;2022-08-07T01:11:59;1.38;;;1.12;;
2430;SDS011;1226;48.998;9.300;2022-08-07T01:14:25;1.30;;;1.00;;
2430;SDS011;1226;48.998;9.300;2022-08-07T01:16:51;0.90;;;0.80;;
2430;SDS011;1226;48.998;9.300;2022-08-07T01:19:17;1.00;;;0.90;;
2430;SDS011;1226;48.998;9.300;2022-08-07T01:21:42;3.78;;;1.08;;
2430;SDS011;1226;48.998;9.300;2022-08-07T01:24:08;2.38;;;1.18;;
2430;SDS011;1226;48.998;9.300;2022-08-07T01:26:34;1.38;;;0.88;;
2430;SDS011;1226;48.998;9.300;2022-08-07T01:29:00;1.00;;;0.90;;
2430;SDS011;1226;48.998;9.300;2022-08-07T01:31:26;2.04;;;1.08;;
2430;SDS011;1226;48.998;9.300;2022-08-07T01:33:52;1.58;;;1.16;;
2430;SDS011;1226;48.998;9.300;2022-08-07T01:36:18;2.08;;;0.90;;
2430;SDS011;1226;48.998;9.300;2022-08-07T01:38:44;2.12;;;1.20;;
2430;SDS011;1226;48.998;9.300;2022-08-07T01:41:10;1.46;;;1.10;;
2430;SDS011;1226;48.998;9.300;2022-08-07T01:43:36;1.14;;;1.00;;
2430;SDS011;1226;48.998;9.300;2022-08-07T01:46:02;1.78;;;1.52;;
2430;SDS011;1226;48.998;9.300;2022-08-07T01:48:27;0.98;;;0.70;;
2430;SDS011;1226;48.998;9.300;2022-08-07T01:50:55;1.28;;;1.02;;
2430;SDS011;1226;48.998;9.300;2022-08-07T01:53:20;1.20;;;1.04;;
2430;SDS011;1226;48.998;9.300;2022-08-07T01:55:46;2.00;;;0.90;;
2430;SDS011;1226;48.998;9.300;2022-08-07T01:58:12;2.44;;;0.94;;
2430;SDS011;1226;48.998;9.300;2022-08-07T02:00:37;1.22;;;1.06;;
2430;SDS011;1226;48.998;9.300;2022-08-07T02:03:06;1.16;;;1.00;;
2430;SDS011;1226;48.998;9.300;2022-08-07T02:05:31;1.58;;;0.94;;
2430;SDS011;1226;48.998;9.300;2022-08-07T02:07:55;1.42;;;1.04;;
2430;SDS011;1226;48.998;9.300;2022-08-07T02:10:22;1.42;;;1.06;;
2430;SDS011;1226;48.998;9.300;2022-08-07T02:12:47;3.36;;;1.18;;
2430;SDS011;1226;48.998;9.300;2022-08-07T02:15:13;1.36;;;1.06;;
2430;SDS011;1226;48.998;9.300;2022-08-07T02:17:38;1.38;;;1.08;;
2430;SDS011;1226;48.998;9.300;2022-08-07T02:20:05;1.44;;;1.10;;
2430;SDS011;1226;48.998;9.300;2022-08-07T02:22:30;2.10;;;1.08;;
2430;SDS011;1226;48.998;9.300;2022-08-07T02:24:56;0.96;;;0.90;;
2430;SDS011;1226;48.998;9.300;2022-08-07T02:27:23;1.58;;;1.24;;
2430;SDS011;1226;48.998;9.300;2022-08-07T02:29:48;1.30;;;1.20;;
2430;SDS011;1226;48.998;9.300;2022-08-07T02:32:14;1.78;;;1.10;;
2430;SDS011;1226;48.998;9.300;2022-08-07T02:34:39;2.70;;;1.28;;
2430;SDS011;1226;48.998;9.300;2022-08-07T02:37:05;2.28;;;1.10;;
2430;SDS011;1226;48.998;9.300;2022-08-07T02:39:31;1.68;;;1.42;;
2430;SDS011;1226;48.998;9.300;2022-08-07T02:41:57;3.26;;;1.30;;
2430;SDS011;1226;48.998;9.300;2022-08-07T02:44:23;1.32;;;1.10;;
2430;SDS011;1226;48.998;9.300;2022-08-07T02:46:50;2.94;;;1.22;;
2430;SDS011;1226;48.998;9.300;2022-08-07T02:49:15;1.32;;;1.00;;
2430;SDS011;1226;48.998;9.300;2022-08-07T02:51:41;1.62;;;1.52;;
2430;SDS011;1226;48.998;9.300;2022-08-07T02:54:06;1.46;;;1.36;;
2430;SDS011;1226;48.998;9.300;2022-08-07T02:56:32;2.02;;;1.36;;
2430;SDS011;1226;48.998;9.300;2022-08-07T02:58:59;3.34;;;1.30;;
2430;SDS011;1226;48.998;9.300;2022-08-07T03:01:24;1.96;;;1.30;;
2430;SDS011;1226;48.998;9.300;2022-08-07T03:03:50;7.94;;;3.30;;
2430;SDS011;1226;48.998;9.300;2022-08-07T03:06:17;1.44;;;1.34;;
2430;SDS011;1226;48.998;9.300;2022-08-07T03:08:42;2.46;;;1.24;;
2430;SDS011;1226;48.998;9.300;2022-08-07T03:11:07;3.04;;;1.40;;
2430;SDS011;1226;48.998;9.300;2022-08-07T03:13:33;2.92;;;1.40;;
2430;SDS011;1226;48.998;9.300;2022-08-07T03:15:59;2.06;;;1.46;;
2430;SDS011;1226;48.998;9.300;2022-08-07T03:18:25;1.54;;;1.44;;
2430;SDS011;1226;48.998;9.300;2022-08-07T03:20:51;1.56;;;1.44;;
2430;SDS011;1226;48.998;9.300;2022-08-07T03:23:17;2.10;;;1.50;;
2430;SDS011;1226;48.998;9.300;2022-08-07T03:25:43;1.42;;;1.32;;
2430;SDS011;1226;48.998;9.300;2022-08-07T03:28:09;1.70;;;1.56;;
2430;SDS011;1226;48.998;9.300;2022-08-07T03:30:34;2.90;;;1.64;;
2430;SDS011;1226;48.998;9.300;2022-08-07T03:33:00;2.18;;;1.60;;
2430;SDS011;1226;48.998;9.300;2022-08-07T03:35:27;2.30;;;1.72;;
2430;SDS011;1226;48.998;9.300;2022-08-07T03:37:53;2.18;;;1.90;;
2430;SDS011;1226;48.998;9.300;2022-08-07T03:40:18;2.20;;;1.56;;
2430;SDS011;1226;48.998;9.300;2022-08-07T03:42:44;1.86;;;1.60;;
2430;SDS011;1226;48.998;9.300;2022-08-07T03:45:09;4.30;;;2.60;;
2430;SDS011;1226;48.998;9.300;2022-08-07T03:47:35;2.54;;;2.34;;
2430;SDS011;1226;48.998;9.300;2022-08-07T03:50:01;2.88;;;1.86;;
2430;SDS011;1226;48.998;9.300;2022-08-07T03:52:27;1.82;;;1.70;;
2430;SDS011;1226;48.998;9.300;2022-08-07T03:54:55;1.60;;;1.50;;
2430;SDS011;1226;48.998;9.300;2022-08-07T03:57:20;1.96;;;1.28;;
2430;SDS011;1226;48.998;9.300;2022-08-07T03:59:45;5.08;;;2.68;;
2430;SDS011;1226;48.998;9.300;2022-08-07T04:02:10;4.20;;;2.96;;
2430;SDS011;1226;48.998;9.300;2022-08-07T04:04:36;3.32;;;2.98;;
2430;SDS011;1226;48.998;9.300;2022-08-07T04:07:02;2.32;;;2.10;;
2430;SDS011;1226;48.998;9.300;2022-08-07T04:09:28;4.32;;;3.26;;
2430;SDS011;1226;48.998;9.300;2022-08-07T04:11:54;3.10;;;2.66;;
2430;SDS011;1226;48.998;9.300;2022-08-07T04:14:20;5.36;;;1.84;;
2430;SDS011;1226;48.998;9.300;2022-08-07T04:16:46;3.66;;;1.58;;
2430;SDS011;1226;48.998;9.300;2022-08-07T04:19:12;2.50;;;2.02;;
2430;SDS011;1226;48.998;9.300;2022-08-07T04:21:37;5.88;;;1.70;;
2430;SDS011;1226;48.998;9.300;2022-08-07T04:24:03;3.76;;;1.86;;
2430;SDS011;1226;48.998;9.300;2022-08-07T04:26:29;2.98;;;1.78;;
2430;SDS011;1226;48.998;9.300;2022-08-07T04:28:55;3.14;;;1.94;;
2430;SDS011;1226;48.998;9.300;2022-08-07T04:31:22;4.02;;;1.70;;
2430;SDS011;1226;48.998;9.300;2022-08-07T04:33:48;1.96;;;1.80;;
2430;SDS011;1226;48.998;9.300;2022-08-07T04:36:13;1.64;;;1.46;;
2430;SDS011;1226;48.998;9.300;2022-08-07T04:38:39;2.92;;;2.20;;
2430;SDS011;1226;48.998;9.300;2022-08-07T04:41:05;2.88;;;1.86;;
2430;SDS011;1226;48.998;9.300;2022-08-07T04:43:32;3.26;;;2.30;;
2430;SDS011;1226;48.998;9.300;2022-08-07T04:46:01;2.80;;;1.80;;
2430;SDS011;1226;48.998;9.300;2022-08-07T04:48:29;2.30;;;2.10;;
2430;SDS011;1226;48.998;9.300;2022-08-07T04:50:55;3.02;;;2.28;;
2430;SDS011;1226;48.998;9.300;2022-08-07T04:53:26;4.48;;;2.06;;
2430;SDS011;1226;48.998;9.300;2022-08-07T04:55:48;4.74;;;2.56;;
2430;SDS011;1226;48.998;9.300;2022-08-07T04:58:16;2.06;;;1.90;;
2430;SDS011;1226;48.998;9.300;2022-08-07T05:00:56;2.68;;;2.12;;
2430;SDS011;1226;48.998;9.300;2022-08-07T05:03:10;2.46;;;1.94;;
2430;SDS011;1226;48.998;9.300;2022-08-07T05:05:34;5.06;;;2.40;;
2430;SDS011;1226;48.998;9.300;2022-08-07T05:08:00;2.98;;;2.10;;
2430;SDS011;1226;48.998;9.300;2022-08-07T05:10:29;2.60;;;2.40;;
2430;SDS011;1226;48.998;9.300;2022-08-07T05:12:56;3.44;;;2.32;;
2430;SDS011;1226;48.998;9.300;2022-08-07T05:15:24;2.72;;;2.10;;
2430;SDS011;1226;48.998;9.300;2022-08-07T05:17:47;5.06;;;1.94;;
2430;SDS011;1226;48.998;9.300;2022-08-07T05:20:13;2.94;;;1.90;;
2430;SDS011;1226;48.998;9.300;2022-08-07T05:22:38;2.34;;;2.14;;
2430;SDS011;1226;48.998;9.300;2022-08-07T05:25:04;2.52;;;2.08;;
2430;SDS011;1226;48.998;9.300;2022-08-07T05:27:30;3.24;;;2.20;;
2430;SDS011;1226;48.998;9.300;2022-08-07T05:29:56;2.42;;;2.20;;
2430;SDS011;1226;48.998;9.300;2022-08-07T05:32:21;2.20;;;2.00;;
2430;SDS011;1226;48.998;9.300;2022-08-07T05:34:47;2.12;;;1.92;;
2430;SDS011;1226;48.998;9.300;2022-08-07T05:37:13;3.50;;;2.32;;
2430;SDS011;1226;48.998;9.300;2022-08-07T05:39:39;3.34;;;2.92;;
2430;SDS011;1226;48.998;9.300;2022-08-07T05:42:05;5.16;;;2.50;;
2430;SDS011;1226;48.998;9.300;2022-08-07T05:44:32;2.66;;;2.44;;
2430;SDS011;1226;48.998;9.300;2022-08-07T05:46:57;2.76;;;2.48;;
2430;SDS011;1226;48.998;9.300;2022-08-07T05:49:22;4.00;;;3.60;;
2430;SDS011;1226;48.998;9.300;2022-08-07T05:51:48;3.22;;;2.60;;
2430;SDS011;1226;48.998;9.300;2022-08-07T05:54:15;5.02;;;3.98;;
2430;SDS011;1226;48.998;9.300;2022-08-07T05:56:41;4.78;;;3.52;;
2430;SDS011;1226;48.998;9.300;2022-08-07T05:59:08;3.78;;;3.30;;
2430;SDS011;1226;48.998;9.300;2022-08-07T06:01:32;4.14;;;3.70;;
2430;SDS011;1226;48.998;9.300;2022-08-07T06:03:58;6.38;;;4.70;;
2430;SDS011;1226;48.998;9.300;2022-08-07T06:06:24;4.96;;;3.76;;
2430;SDS011;1226;48.998;9.300;2022-08-07T06:08:50;6.38;;;3.74;;
2430;SDS011;1226;48.998;9.300;2022-08-07T06:11:16;6.04;;;4.56;;
2430;SDS011;1226;48.998;9.300;2022-08-07T06:13:42;4.48;;;4.04;;
2430;SDS011;1226;48.998;9.300;2022-08-07T06:16:08;4.92;;;3.60;;
2430;SDS011;1226;48.998;9.300;2022-08-07T06:18:33;5.02;;;3.62;;
2430;SDS011;1226;48.998;9.300;2022-08-07T06:20:59;4.52;;;3.78;;
2430;SDS011;1226;48.998;9.300;2022-08-07T06:23:25;6.40;;;3.48;;
2430;SDS011;1226;48.998;9.300;2022-08-07T06:25:51;4.32;;;3.22;;
2430;SDS011;1226;48.998;9.300;2022-08-07T06:28:17;4.50;;;3.50;;
2430;SDS011;1226;48.998;9.300;2022-08-07T06:30:43;5.90;;;4.10;;
2430;SDS011;1226;48.998;9.300;2022-08-07T06:33:09;4.30;;;3.52;;
2430;SDS011;1226;48.998;9.300;2022-08-07T06:35:35;3.48;;;3.10;;
2430;SDS011;1226;48.998;9.300;2022-08-07T06:38:01;3.16;;;2.86;;
2430;SDS011;1226;48.998;9.300;2022-08-07T06:40:27;4.42;;;3.60;;
2430;SDS011;1226;48.998;9.300;2022-08-07T06:42:52;4.16;;;2.98;;
2430;SDS011;1226;48.998;9.300;2022-08-07T06:45:19;4.08;;;3.18;;
2430;SDS011;1226;48.998;9.300;2022-08-07T06:47:44;3.72;;;2.84;;
2430;SDS011;1226;48.998;9.300;2022-08-07T06:50:10;3.38;;;3.08;;
2430;SDS011;1226;48.998;9.300;2022-08-07T06:52:37;3.22;;;2.92;;
2430;SDS011;1226;48.998;9.300;2022-08-07T06:55:04;4.02;;;2.94;;
2430;SDS011;1226;48.998;9.300;2022-08-07T06:57:28;3.70;;;2.84;;
2430;SDS011;1226;48.998;9.300;2022-08-07T06:59:53;3.72;;;2.72;;
2430;SDS011;1226;48.998;9.300;2022-08-07T07:02:20;2.38;;;2.18;;
2430;SDS011;1226;48.998;9.300;2022-08-07T07:04:45;2.90;;;2.60;;
2430;SDS011;1226;48.998;9.300;2022-08-07T07:07:11;2.40;;;2.20;;
2430;SDS011;1226;48.998;9.300;2022-08-07T07:09:42;2.90;;;2.46;;
2430;SDS011;1226;48.998;9.300;2022-08-07T07:12:39;2.40;;;2.20;;
2430;SDS011;1226;48.998;9.300;2022-08-07T07:14:35;2.88;;;2.00;;
2430;SDS011;1226;48.998;9.300;2022-08-07T07:16:57;2.38;;;2.10;;
2430;SDS011;1226;48.998;9.300;2022-08-07T07:19:25;2.70;;;2.50;;
2430;SDS011;1226;48.998;9.300;2022-08-07T07:21:48;3.32;;;1.88;;
2430;SDS011;1226;48.998;9.300;2022-08-07T07:24:14;2.20;;;2.00;;
2430;SDS011;1226;48.998;9.300;2022-08-07T07:26:40;3.68;;;2.44;;
2430;SDS011;1226;48.998;9.300;2022-08-07T07:29:10;2.00;;;1.70;;
2430;SDS011;1226;48.998;9.300;2022-08-07T07:31:36;3.64;;;2.12;;
2430;SDS011;1226;48.998;9.300;2022-08-07T07:34:02;2.14;;;1.94;;
2430;SDS011;1226;48.998;9.300;2022-08-07T07:36:26;2.16;;;1.96;;
2430;SDS011;1226;48.998;9.300;2022-08-07T07:38:52;2.72;;;2.50;;
2430;SDS011;1226;48.998;9.300;2022-08-07T07:41:19;1.82;;;1.64;;
2430;SDS011;1226;48.998;9.300;2022-08-07T07:43:44;2.04;;;1.64;;
2430;SDS011;1226;48.998;9.300;2022-08-07T07:46:10;1.58;;;1.48;;
2430;SDS011;1226;48.998;9.300;2022-08-07T07:48:35;4.42;;;1.94;;
2430;SDS011;1226;48.998;9.300;2022-08-07T07:51:02;3.26;;;1.82;;
2430;SDS011;1226;48.998;9.300;2022-08-07T07:53:27;2.20;;;1.84;;
2430;SDS011;1226;48.998;9.300;2022-08-07T07:55:54;4.56;;;1.82;;
2430;SDS011;1226;48.998;9.300;2022-08-07T07:58:19;3.72;;;2.94;;
2430;SDS011;1226;48.998;9.300;2022-08-07T08:00:45;1.78;;;1.60;;
2430;SDS011;1226;48.998;9.300;2022-08-07T08:03:11;1.86;;;1.54;;
2430;SDS011;1226;48.998;9.300;2022-08-07T08:05:37;1.64;;;1.54;;
2430;SDS011;1226;48.998;9.300;2022-08-07T08:08:02;2.18;;;1.58;;
2430;SDS011;1226;48.998;9.300;2022-08-07T08:10:28;1.54;;;1.44;;
2430;SDS011;1226;48.998;9.300;2022-08-07T08:12:54;2.28;;;1.60;;
2430;SDS011;1226;48.998;9.300;2022-08-07T08:15:20;2.94;;;1.72;;
2430;SDS011;1226;48.998;9.300;2022-08-07T08:17:46;2.02;;;1.56;;
2430;SDS011;1226;48.998;9.300;2022-08-07T08:20:12;1.42;;;1.32;;
2430;SDS011;1226;48.998;9.300;2022-08-07T08:22:38;4.40;;;1.64;;
2430;SDS011;1226;48.998;9.300;2022-08-07T08:25:09;2.24;;;1.68;;
2430;SDS011;1226;48.998;9.300;2022-08-07T08:27:40;1.32;;;1.22;;
2430;SDS011;1226;48.998;9.300;2022-08-07T08:30:07;1.20;;;1.10;;
2430;SDS011;1226;48.998;9.300;2022-08-07T08:32:35;1.44;;;1.32;;
2430;SDS011;1226;48.998;9.300;2022-08-07T08:34:58;4.00;;;1.32;;
2430;SDS011;1226;48.998;9.300;2022-08-07T08:37:24;1.24;;;1.14;;
2430;SDS011;1226;48.998;9.300;2022-08-07T08:39:51;2.38;;;1.24;;
2430;SDS011;1226;48.998;9.300;2022-08-07T08:42:18;1.36;;;1.26;;
2430;SDS011;1226;48.998;9.300;2022-08-07T08:44:52;1.44;;;1.34;;
2430;SDS011;1226;48.998;9.300;2022-08-07T08:49:43;2.10;;;1.10;;
2430;SDS011;1226;48.998;9.300;2022-08-07T08:52:10;1.32;;;1.22;;
2430;SDS011;1226;48.998;9.300;2022-08-07T08:54:35;1.46;;;1.36;;
2430;SDS011;1226;48.998;9.300;2022-08-07T08:57:02;1.40;;;1.28;;
2430;SDS011;1226;48.998;9.300;2022-08-07T08:59:26;2.10;;;1.30;;
2430;SDS011;1226;48.998;9.300;2022-08-07T09:04:35;1.50;;;1.38;;
2430;SDS011;1226;48.998;9.300;2022-08-07T09:06:52;1.42;;;1.20;;
2430;SDS011;1226;48.998;9.300;2022-08-07T09:09:24;4.00;;;1.10;;
2430;SDS011;1226;48.998;9.300;2022-08-07T09:11:49;1.76;;;1.52;;
2430;SDS011;1226;48.998;9.300;2022-08-07T09:14:16;1.58;;;1.48;;
2430;SDS011;1226;48.998;9.300;2022-08-07T09:16:47;1.98;;;1.62;;
2430;SDS011;1226;48.998;9.300;2022-08-07T09:24:24;2.14;;;1.12;;
2430;SDS011;1226;48.998;9.300;2022-08-07T09:26:44;1.40;;;1.22;;
2430;SDS011;1226;48.998;9.300;2022-08-07T09:29:13;1.20;;;1.04;;
2430;SDS011;1226;48.998;9.300;2022-08-07T09:31:44;2.92;;;1.14;;
2430;SDS011;1226;48.998;9.300;2022-08-07T09:34:12;1.66;;;1.36;;
2430;SDS011;1226;48.998;9.300;2022-08-07T09:36:37;1.52;;;1.42;;
2430;SDS011;1226;48.998;9.300;2022-08-07T09:41:35;1.58;;;0.94;;
2430;SDS011;1226;48.998;9.300;2022-08-07T09:46:34;1.48;;;1.08;;
2430;SDS011;1226;48.998;9.300;2022-08-07T09:48:56;2.62;;;1.10;;
2430;SDS011;1226;48.998;9.300;2022-08-07T09:51:54;1.12;;;1.00;;
2430;SDS011;1226;48.998;9.300;2022-08-07T09:53:45;1.44;;;1.06;;
2430;SDS011;1226;48.998;9.300;2022-08-07T09:56:49;1.44;;;1.10;;
2430;SDS011;1226;48.998;9.300;2022-08-07T09:58:44;1.78;;;1.20;;
2430;SDS011;1226;48.998;9.300;2022-08-07T10:01:07;1.52;;;0.88;;
2430;SDS011;1226;48.998;9.300;2022-08-07T10:03:48;2.40;;;0.82;;
2430;SDS011;1226;48.998;9.300;2022-08-07T10:08:34;1.14;;;1.00;;
2430;SDS011;1226;48.998;9.300;2022-08-07T10:10:54;2.00;;;1.14;;
2430;SDS011;1226;48.998;9.300;2022-08-07T10:13:25;1.36;;;1.00;;
2430;SDS011;1226;48.998;9.300;2022-08-07T10:18:19;1.22;;;1.04;;
2430;SDS011;1226;48.998;9.300;2022-08-07T10:20:44;0.94;;;0.94;;
2430;SDS011;1226;48.998;9.300;2022-08-07T10:23:11;1.52;;;0.86;;
2430;SDS011;1226;48.998;9.300;2022-08-07T10:25:35;3.26;;;0.96;;
2430;SDS011;1226;48.998;9.300;2022-08-07T10:28:09;1.68;;;0.96;;
2430;SDS011;1226;48.998;9.300;2022-08-07T10:30:37;2.18;;;1.12;;
2430;SDS011;1226;48.998;9.300;2022-08-07T10:33:10;1.98;;;1.10;;
2430;SDS011;1226;48.998;9.300;2022-08-07T10:35:35;1.02;;;0.90;;
2430;SDS011;1226;48.998;9.300;2022-08-07T10:38:13;0.84;;;0.62;;
2430;SDS011;1226;48.998;9.300;2022-08-07T10:40:32;1.60;;;0.92;;
2430;SDS011;1226;48.998;9.300;2022-08-07T10:43:00;1.22;;;0.84;;
2430;SDS011;1226;48.998;9.300;2022-08-07T10:45:26;1.10;;;0.88;;
2430;SDS011;1226;48.998;9.300;2022-08-07T10:50:22;2.20;;;1.02;;
2430;SDS011;1226;48.998;9.300;2022-08-07T10:52:52;1.30;;;1.04;;
2430;SDS011;1226;48.998;9.300;2022-08-07T10:55:17;1.10;;;0.98;;
2430;SDS011;1226;48.998;9.300;2022-08-07T11:00:10;1.16;;;1.00;;
2430;SDS011;1226;48.998;9.300;2022-08-07T11:02:39;1.18;;;1.08;;
2430;SDS011;1226;48.998;9.300;2022-08-07T11:05:15;0.94;;;0.78;;
2430;SDS011;1226;48.998;9.300;2022-08-07T11:10:02;1.92;;;0.84;;
2430;SDS011;1226;48.998;9.300;2022-08-07T11:12:29;1.48;;;1.10;;
2430;SDS011;1226;48.998;9.300;2022-08-07T11:14:54;1.40;;;1.30;;
2430;SDS011;1226;48.998;9.300;2022-08-07T11:17:22;2.54;;;0.62;;
2430;SDS011;1226;48.998;9.300;2022-08-07T11:19:49;1.36;;;1.04;;
2430;SDS011;1226;48.998;9.300;2022-08-07T11:22:16;0.82;;;0.72;;
2430;SDS011;1226;48.998;9.300;2022-08-07T11:24:45;1.04;;;0.94;;
2430;SDS011;1226;48.998;9.300;2022-08-07T11:27:19;0.90;;;0.80;;
2430;SDS011;1226;48.998;9.300;2022-08-07T11:29:39;1.76;;;0.76;;
2430;SDS011;1226;48.998;9.300;2022-08-07T11:32:04;1.48;;;0.92;;
2430;SDS011;1226;48.998;9.300;2022-08-07T11:34:35;2.34;;;0.94;;
2430;SDS011;1226;48.998;9.300;2022-08-07T11:36:58;2.20;;;1.04;;
2430;SDS011;1226;48.998;9.300;2022-08-07T11:41:54;1.22;;;1.06;;
2430;SDS011;1226;48.998;9.300;2022-08-07T11:44:17;1.62;;;0.94;;
2430;SDS011;1226;48.998;9.300;2022-08-07T11:46:56;0.90;;;0.76;;
2430;SDS011;1226;48.998;9.300;2022-08-07T11:52:54;1.22;;;0.60;;
2430;SDS011;1226;48.998;9.300;2022-08-07T11:54:47;1.06;;;0.88;;
2430;SDS011;1226;48.998;9.300;2022-08-07T11:56:46;3.06;;;0.70;;
2430;SDS011;1226;48.998;9.300;2022-08-07T12:01:47;1.56;;;0.70;;
2430;SDS011;1226;48.998;9.300;2022-08-07T12:04:27;0.76;;;0.74;;
2430;SDS011;1226;48.998;9.300;2022-08-07T12:06:52;0.98;;;0.70;;
2430;SDS011;1226;48.998;9.300;2022-08-07T12:09:12;1.14;;;0.78;;
2430;SDS011;1226;48.998;9.300;2022-08-07T12:11:39;1.18;;;0.84;;
2430;SDS011;1226;48.998;9.300;2022-08-07T12:14:04;1.00;;;0.90;;
2430;SDS011;1226;48.998;9.300;2022-08-07T12:16:29;0.90;;;0.88;;
2430;SDS011;1226;48.998;9.300;2022-08-07T12:21:36;1.16;;;1.06;;
2430;SDS011;1226;48.998;9.300;2022-08-07T12:23:56;2.00;;;1.18;;
2430;SDS011;1226;48.998;9.300;2022-08-07T12:26:25;1.04;;;0.70;;
2430;SDS011;1226;48.998;9.300;2022-08-07T12:28:54;1.48;;;0.60;;
2430;SDS011;1226;48.998;9.300;2022-08-07T12:31:22;0.70;;;0.60;;
2430;SDS011;1226;48.998;9.300;2022-08-07T12:33:46;1.16;;;0.84;;
2430;SDS011;1226;48.998;9.300;2022-08-07T12:36:12;1.56;;;0.98;;
2430;SDS011;1226;48.998;9.300;2022-08-07T12:38:39;0.80;;;0.78;;
2430;SDS011;1226;48.998;9.300;2022-08-07T12:41:03;1.22;;;1.06;;
2430;SDS011;1226;48.998;9.300;2022-08-07T12:43:30;1.08;;;0.88;;
2430;SDS011;1226;48.998;9.300;2022-08-07T12:46:01;1.52;;;0.78;;
2430;SDS011;1226;48.998;9.300;2022-08-07T12:48:26;1.18;;;1.08;;
2430;SDS011;1226;48.998;9.300;2022-08-07T12:53:17;1.76;;;0.78;;
2430;SDS011;1226;48.998;9.300;2022-08-07T12:55:45;1.22;;;1.12;;
2430;SDS011;1226;48.998;9.300;2022-08-07T12:58:09;1.10;;;1.00;;
2430;SDS011;1226;48.998;9.300;2022-08-07T13:00:43;0.98;;;0.88;;
2430;SDS011;1226;48.998;9.300;2022-08-07T13:03:06;1.12;;;1.02;;
2430;SDS011;1226;48.998;9.300;2022-08-07T13:05:52;1.10;;;0.80;;
2430;SDS011;1226;48.998;9.300;2022-08-07T13:08:00;0.92;;;0.78;;
2430;SDS011;1226;48.998;9.300;2022-08-07T13:10:29;2.12;;;1.10;;
2430;SDS011;1226;48.998;9.300;2022-08-07T13:12:55;1.18;;;1.06;;
2430;SDS011;1226;48.998;9.300;2022-08-07T13:15:21;1.90;;;0.84;;
2430;SDS011;1226;48.998;9.300;2022-08-07T13:17:44;1.30;;;0.96;;
2430;SDS011;1226;48.998;9.300;2022-08-07T13:20:08;1.02;;;0.92;;
2430;SDS011;1226;48.998;9.300;2022-08-07T13:22:35;1.34;;;0.90;;
2430;SDS011;1226;48.998;9.300;2022-08-07T13:25:08;1.60;;;1.28;;
2430;SDS011;1226;48.998;9.300;2022-08-07T13:27:33;1.44;;;1.00;;
2430;SDS011;1226;48.998;9.300;2022-08-07T13:30:00;0.88;;;0.80;;
2430;SDS011;1226;48.998;9.300;2022-08-07T13:32:26;1.32;;;1.10;;
2430;SDS011;1226;48.998;9.300;2022-08-07T13:34:59;1.20;;;1.00;;
2430;SDS011;1226;48.998;9.300;2022-08-07T13:37:25;1.46;;;1.36;;
2430;SDS011;1226;48.998;9.300;2022-08-07T13:42:16;1.42;;;0.80;;
2430;SDS011;1226;48.998;9.300;2022-08-07T13:44:41;1.26;;;1.14;;
2430;SDS011;1226;48.998;9.300;2022-08-07T13:47:08;1.14;;;0.90;;
2430;SDS011;1226;48.998;9.300;2022-08-07T13:49:34;2.50;;;1.16;;
2430;SDS011;1226;48.998;9.300;2022-08-07T13:52:02;1.26;;;1.12;;
2430;SDS011;1226;48.998;9.300;2022-08-07T13:54:28;1.80;;;1.20;;
2430;SDS011;1226;48.998;9.300;2022-08-07T13:56:54;2.78;;;1.28;;
2430;SDS011;1226;48.998;9.300;2022-08-07T13:59:20;2.92;;;1.22;;
2430;SDS011;1226;48.998;9.300;2022-08-07T14:01:52;1.06;;;0.96;;
2430;SDS011;1226;48.998;9.300;2022-08-07T14:04:10;1.14;;;1.04;;
2430;SDS011;1226;48.998;9.300;2022-08-07T14:06:37;1.54;;;1.42;;
2430;SDS011;1226;48.998;9.300;2022-08-07T14:09:02;1.64;;;1.04;;
2430;SDS011;1226;48.998;9.300;2022-08-07T14:11:28;1.38;;;1.28;;
2430;SDS011;1226;48.998;9.300;2022-08-07T14:13:55;1.30;;;1.20;;
2430;SDS011;1226;48.998;9.300;2022-08-07T14:16:19;2.06;;;1.60;;
2430;SDS011;1226;48.998;9.300;2022-08-07T14:18:46;1.40;;;1.16;;
2430;SDS011;1226;48.998;9.300;2022-08-07T14:21:12;1.54;;;1.20;;
2430;SDS011;1226;48.998;9.300;2022-08-07T14:23:42;2.28;;;1.48;;
2430;SDS011;1226;48.998;9.300;2022-08-07T14:26:10;1.78;;;1.28;;
2430;SDS011;1226;48.998;9.300;2022-08-07T14:28:32;1.28;;;1.04;;
2430;SDS011;1226;48.998;9.300;2022-08-07T14:30:57;3.46;;;1.10;;
2430;SDS011;1226;48.998;9.300;2022-08-07T14:33:23;2.04;;;1.50;;
2430;SDS011;1226;48.998;9.300;2022-08-07T14:35:53;1.50;;;1.20;;
2430;SDS011;1226;48.998;9.300;2022-08-07T14:38:15;1.46;;;1.28;;
2430;SDS011;1226;48.998;9.300;2022-08-07T14:40:41;1.20;;;1.04;;
2430;SDS011;1226;48.998;9.300;2022-08-07T14:43:08;1.12;;;1.02;;
2430;SDS011;1226;48.998;9.300;2022-08-07T14:45:34;1.20;;;0.90;;
2430;SDS011;1226;48.998;9.300;2022-08-07T14:48:00;1.16;;;1.06;;
2430;SDS011;1226;48.998;9.300;2022-08-07T14:50:25;1.32;;;1.08;;
2430;SDS011;1226;48.998;9.300;2022-08-07T14:52:50;1.82;;;1.24;;
2430;SDS011;1226;48.998;9.300;2022-08-07T14:55:16;1.12;;;0.92;;
2430;SDS011;1226;48.998;9.300;2022-08-07T14:57:42;1.20;;;1.10;;
2430;SDS011;1226;48.998;9.300;2022-08-07T15:00:08;1.40;;;1.20;;
2430;SDS011;1226;48.998;9.300;2022-08-07T15:02:34;1.74;;;1.06;;
2430;SDS011;1226;48.998;9.300;2022-08-07T15:05:01;1.54;;;1.20;;
2430;SDS011;1226;48.998;9.300;2022-08-07T15:07:26;2.60;;;1.42;;
2430;SDS011;1226;48.998;9.300;2022-08-07T15:09:54;1.24;;;1.14;;
2430;SDS011;1226;48.998;9.300;2022-08-07T15:12:19;1.80;;;0.98;;
2430;SDS011;1226;48.998;9.300;2022-08-07T15:14:49;0.90;;;0.84;;
2430;SDS011;1226;48.998;9.300;2022-08-07T15:17:14;1.98;;;1.10;;
2430;SDS011;1226;48.998;9.300;2022-08-07T15:19:46;2.28;;;1.12;;
2430;SDS011;1226;48.998;9.300;2022-08-07T15:22:05;1.82;;;1.10;;
2430;SDS011;1226;48.998;9.300;2022-08-07T15:24:33;1.68;;;1.56;;
2430;SDS011;1226;48.998;9.300;2022-08-07T15:27:14;1.28;;;1.18;;
2430;SDS011;1226;48.998;9.300;2022-08-07T15:29:23;4.16;;;1.40;;
2430;SDS011;1226;48.998;9.300;2022-08-07T15:31:49;1.48;;;1.08;;
2430;SDS011;1226;48.998;9.300;2022-08-07T15:34:15;1.64;;;1.26;;
2430;SDS011;1226;48.998;9.300;2022-08-07T15:36:41;2.60;;;1.28;;
2430;SDS011;1226;48.998;9.300;2022-08-07T15:39:07;1.94;;;1.20;;
2430;SDS011;1226;48.998;9.300;2022-08-07T15:41:36;1.48;;;1.22;;
2430;SDS011;1226;48.998;9.300;2022-08-07T15:43:59;1.56;;;1.20;;
2430;SDS011;1226;48.998;9.300;2022-08-07T15:46:24;1.56;;;1.00;;
2430;SDS011;1226;48.998;9.300;2022-08-07T15:48:50;1.82;;;1.02;;
2430;SDS011;1226;48.998;9.300;2022-08-07T15:51:16;1.30;;;1.16;;